sensor_id;sensor_type;location;lat;lon;timestamp;P1;durP1;ratioP1;P2;durP2;ratioP2
40022;SDS011;25713;-35.352;149.036;2023-03-14T00:01:36;1.48;;;0.52;;
40022;SDS011;25713;-35.352;149.036;2023-03-14T00:04:06;2.13;;;0.60;;
40022;SDS011;25713;-35.352;149.036;2023-03-14T00:06:37;3.05;;;0.60;;
40022;SDS011;25713;-35.352;149.036;2023-03-14T00:09:07;2.47;;;0.57;;
40022;SDS011;25713;-35.352;149.036;2023-03-14T00:11:40;1.42;;;0.40;;
40022;SDS011;25713;-35.352;149.036;2023-03-14T00:14:10;0.60;;;0.43;;
40022;SDS011;25713;-35.352;149.036;2023-03-14T00:16:39;2.15;;;0.70;;
40022;SDS011;25713;-35.352;149.036;2023-03-14T00:19:08;1.50;;;0.90;;
40022;SDS011;25713;-35.352;149.036;2023-03-14T00:21:38;4.43;;;0.63;;
40022;SDS011;25713;-35.352;149.036;2023-03-14T00:24:08;3.15;;;0.50;;
40022;SDS011;25713;-35.352;149.036;2023-03-14T00:26:39;2.83;;;0.68;;
40022;SDS011;25713;-35.352;149.036;2023-03-14T00:29:09;1.67;;;0.70;;
40022;SDS011;25713;-35.352;149.036;2023-03-14T00:31:38;3.45;;;0.70;;
40022;SDS011;25713;-35.352;149.036;2023-03-14T00:34:10;1.85;;;0.50;;
40022;SDS011;25713;-35.352;149.036;2023-03-14T00:36:39;2.75;;;0.60;;
40022;SDS011;25713;-35.352;149.036;2023-03-14T00:39:08;1.52;;;0.60;;
40022;SDS011;25713;-35.352;149.036;2023-03-14T00:41:41;2.65;;;0.63;;
40022;SDS011;25713;-35.352;149.036;2023-03-14T00:44:10;2.40;;;0.60;;
40022;SDS011;25713;-35.352;149.036;2023-03-14T00:46:40;4.45;;;0.73;;
40022;SDS011;25713;-35.352;149.036;2023-03-14T00:49:10;1.33;;;0.55;;
40022;SDS011;25713;-35.352;149.036;2023-03-14T00:51:39;2.50;;;0.52;;
40022;SDS011;25713;-35.352;149.036;2023-03-14T00:54:09;2.28;;;0.63;;
40022;SDS011;25713;-35.352;149.036;2023-03-14T00:56:42;2.13;;;0.60;;
40022;SDS011;25713;-35.352;149.036;2023-03-14T00:59:12;6.00;;;0.80;;
40022;SDS011;25713;-35.352;149.036;2023-03-14T01:01:44;5.65;;;0.80;;
40022;SDS011;25713;-35.352;149.036;2023-03-14T01:04:14;4.63;;;0.73;;
40022;SDS011;25713;-35.352;149.036;2023-03-14T01:06:44;2.08;;;0.55;;
40022;SDS011;25713;-35.352;149.036;2023-03-14T01:09:14;2.92;;;0.75;;
40022;SDS011;25713;-35.352;149.036;2023-03-14T01:11:46;2.13;;;0.60;;
40022;SDS011;25713;-35.352;149.036;2023-03-14T01:14:18;2.38;;;0.60;;
40022;SDS011;25713;-35.352;149.036;2023-03-14T01:16:48;2.60;;;0.63;;
40022;SDS011;25713;-35.352;149.036;2023-03-14T01:19:19;2.38;;;0.82;;
40022;SDS011;25713;-35.352;149.036;2023-03-14T01:21:49;2.40;;;0.57;;
40022;SDS011;25713;-35.352;149.036;2023-03-14T01:24:19;2.30;;;0.63;;
40022;SDS011;25713;-35.352;149.036;2023-03-14T01:26:52;4.22;;;0.75;;
40022;SDS011;25713;-35.352;149.036;2023-03-14T01:29:24;3.15;;;0.70;;
40022;SDS011;25713;-35.352;149.036;2023-03-14T01:31:54;2.33;;;0.60;;
40022;SDS011;25713;-35.352;149.036;2023-03-14T01:34:25;1.17;;;0.63;;
40022;SDS011;25713;-35.352;149.036;2023-03-14T01:36:55;2.10;;;0.60;;
40022;SDS011;25713;-35.352;149.036;2023-03-14T01:39:25;3.17;;;0.57;;
40022;SDS011;25713;-35.352;149.036;2023-03-14T01:41:57;2.05;;;0.70;;
40022;SDS011;25713;-35.352;149.036;2023-03-14T01:44:28;1.35;;;0.60;;
40022;SDS011;25713;-35.352;149.036;2023-03-14T01:47:11;1.75;;;0.70;;
40022;SDS011;25713;-35.352;149.036;2023-03-14T01:49:41;3.08;;;0.70;;
40022;SDS011;25713;-35.352;149.036;2023-03-14T01:52:14;2.38;;;0.57;;
40022;SDS011;25713;-35.352;149.036;2023-03-14T01:54:48;1.08;;;0.55;;
40022;SDS011;25713;-35.352;149.036;2023-03-14T01:57:23;1.75;;;0.60;;
40022;SDS011;25713;-35.352;149.036;2023-03-14T01:59:58;4.65;;;0.88;;
40022;SDS011;25713;-35.352;149.036;2023-03-14T02:02:40;3.63;;;0.68;;
40022;SDS011;25713;-35.352;149.036;2023-03-14T02:05:14;3.90;;;0.93;;
40022;SDS011;25713;-35.352;149.036;2023-03-14T02:07:51;3.95;;;0.82;;
40022;SDS011;25713;-35.352;149.036;2023-03-14T02:10:28;3.88;;;0.88;;
40022;SDS011;25713;-35.352;149.036;2023-03-14T02:13:03;3.83;;;0.77;;
40022;SDS011;25713;-35.352;149.036;2023-03-14T02:15:48;3.40;;;0.90;;
40022;SDS011;25713;-35.352;149.036;2023-03-14T02:18:35;3.33;;;0.85;;
40022;SDS011;25713;-35.352;149.036;2023-03-14T02:21:22;2.78;;;0.70;;
40022;SDS011;25713;-35.352;149.036;2023-03-14T02:24:01;2.53;;;0.73;;
40022;SDS011;25713;-35.352;149.036;2023-03-14T02:26:44;2.60;;;0.70;;
40022;SDS011;25713;-35.352;149.036;2023-03-14T02:29:33;1.08;;;0.50;;
40022;SDS011;25713;-35.352;149.036;2023-03-14T02:32:07;3.88;;;0.70;;
40022;SDS011;25713;-35.352;149.036;2023-03-14T02:34:39;3.10;;;0.77;;
40022;SDS011;25713;-35.352;149.036;2023-03-14T02:37:10;3.05;;;0.60;;
40022;SDS011;25713;-35.352;149.036;2023-03-14T02:39:41;2.05;;;0.70;;
40022;SDS011;25713;-35.352;149.036;2023-03-14T02:42:13;2.60;;;0.85;;
40022;SDS011;25713;-35.352;149.036;2023-03-14T02:47:57;4.47;;;0.80;;
40022;SDS011;25713;-35.352;149.036;2023-03-14T02:50:33;3.45;;;0.60;;
40022;SDS011;25713;-35.352;149.036;2023-03-14T02:53:04;6.07;;;1.00;;
40022;SDS011;25713;-35.352;149.036;2023-03-14T02:55:35;1.95;;;0.75;;
40022;SDS011;25713;-35.352;149.036;2023-03-14T02:58:11;2.45;;;0.68;;
40022;SDS011;25713;-35.352;149.036;2023-03-14T03:00:43;4.20;;;0.75;;
40022;SDS011;25713;-35.352;149.036;2023-03-14T03:03:16;3.30;;;0.80;;
40022;SDS011;25713;-35.352;149.036;2023-03-14T03:05:49;3.03;;;0.65;;
40022;SDS011;25713;-35.352;149.036;2023-03-14T03:08:19;2.85;;;0.90;;
40022;SDS011;25713;-35.352;149.036;2023-03-14T03:10:51;2.97;;;0.87;;
40022;SDS011;25713;-35.352;149.036;2023-03-14T03:13:21;4.80;;;0.70;;
40022;SDS011;25713;-35.352;149.036;2023-03-14T03:15:54;3.45;;;0.65;;
40022;SDS011;25713;-35.352;149.036;2023-03-14T03:18:26;2.45;;;0.68;;
40022;SDS011;25713;-35.352;149.036;2023-03-14T03:23:28;1.98;;;0.50;;
40022;SDS011;25713;-35.352;149.036;2023-03-14T03:25:58;3.35;;;0.90;;
40022;SDS011;25713;-35.352;149.036;2023-03-14T03:28:28;2.17;;;0.60;;
40022;SDS011;25713;-35.352;149.036;2023-03-14T03:31:05;2.10;;;0.70;;
40022;SDS011;25713;-35.352;149.036;2023-03-14T03:33:39;1.30;;;0.60;;
40022;SDS011;25713;-35.352;149.036;2023-03-14T03:36:09;1.25;;;0.50;;
40022;SDS011;25713;-35.352;149.036;2023-03-14T03:38:40;1.60;;;0.70;;
40022;SDS011;25713;-35.352;149.036;2023-03-14T03:41:10;1.80;;;0.68;;
40022;SDS011;25713;-35.352;149.036;2023-03-14T03:43:40;3.10;;;0.70;;
40022;SDS011;25713;-35.352;149.036;2023-03-14T03:46:11;1.60;;;0.50;;
40022;SDS011;25713;-35.352;149.036;2023-03-14T03:48:43;1.73;;;0.63;;
40022;SDS011;25713;-35.352;149.036;2023-03-14T03:51:12;1.75;;;0.40;;
40022;SDS011;25713;-35.352;149.036;2023-03-14T03:53:43;2.83;;;0.80;;
40022;SDS011;25713;-35.352;149.036;2023-03-14T03:56:16;1.88;;;0.68;;
40022;SDS011;25713;-35.352;149.036;2023-03-14T03:58:46;0.95;;;0.40;;
40022;SDS011;25713;-35.352;149.036;2023-03-14T04:01:16;1.30;;;0.50;;
40022;SDS011;25713;-35.352;149.036;2023-03-14T04:03:52;2.67;;;0.70;;
40022;SDS011;25713;-35.352;149.036;2023-03-14T04:06:22;2.40;;;0.60;;
40022;SDS011;25713;-35.352;149.036;2023-03-14T04:08:55;4.43;;;0.70;;
40022;SDS011;25713;-35.352;149.036;2023-03-14T04:11:42;3.47;;;0.60;;
40022;SDS011;25713;-35.352;149.036;2023-03-14T04:14:21;3.15;;;0.68;;
40022;SDS011;25713;-35.352;149.036;2023-03-14T04:17:01;3.08;;;0.55;;
40022;SDS011;25713;-35.352;149.036;2023-03-14T04:19:34;2.08;;;0.60;;
40022;SDS011;25713;-35.352;149.036;2023-03-14T04:22:04;1.50;;;0.70;;
40022;SDS011;25713;-35.352;149.036;2023-03-14T04:24:43;2.00;;;0.75;;
40022;SDS011;25713;-35.352;149.036;2023-03-14T04:27:13;2.50;;;0.80;;
40022;SDS011;25713;-35.352;149.036;2023-03-14T04:29:45;3.42;;;0.80;;
40022;SDS011;25713;-35.352;149.036;2023-03-14T04:32:19;1.92;;;0.60;;
40022;SDS011;25713;-35.352;149.036;2023-03-14T04:34:51;2.45;;;0.68;;
40022;SDS011;25713;-35.352;149.036;2023-03-14T04:37:21;3.67;;;0.65;;
40022;SDS011;25713;-35.352;149.036;2023-03-14T04:39:52;1.60;;;0.65;;
40022;SDS011;25713;-35.352;149.036;2023-03-14T04:42:27;5.22;;;0.63;;
40022;SDS011;25713;-35.352;149.036;2023-03-14T04:44:58;2.33;;;0.70;;
40022;SDS011;25713;-35.352;149.036;2023-03-14T04:47:31;2.80;;;0.70;;
40022;SDS011;25713;-35.352;149.036;2023-03-14T04:50:04;1.98;;;0.65;;
40022;SDS011;25713;-35.352;149.036;2023-03-14T04:52:34;1.88;;;0.60;;
40022;SDS011;25713;-35.352;149.036;2023-03-14T04:55:05;1.23;;;0.60;;
40022;SDS011;25713;-35.352;149.036;2023-03-14T04:57:36;1.52;;;0.60;;
40022;SDS011;25713;-35.352;149.036;2023-03-14T05:00:11;1.15;;;0.60;;
40022;SDS011;25713;-35.352;149.036;2023-03-14T05:02:50;1.65;;;0.60;;
40022;SDS011;25713;-35.352;149.036;2023-03-14T05:05:40;2.17;;;0.65;;
40022;SDS011;25713;-35.352;149.036;2023-03-14T05:08:45;0.98;;;0.70;;
40022;SDS011;25713;-35.352;149.036;2023-03-14T05:11:47;3.00;;;0.70;;
40022;SDS011;25713;-35.352;149.036;2023-03-14T05:14:35;0.80;;;0.65;;
40022;SDS011;25713;-35.352;149.036;2023-03-14T05:17:32;0.73;;;0.60;;
40022;SDS011;25713;-35.352;149.036;2023-03-14T05:20:15;2.28;;;0.88;;
40022;SDS011;25713;-35.352;149.036;2023-03-14T05:23:12;1.20;;;0.90;;
40022;SDS011;25713;-35.352;149.036;2023-03-14T05:26:20;1.73;;;0.82;;
40022;SDS011;25713;-35.352;149.036;2023-03-14T05:29:00;1.98;;;0.75;;
40022;SDS011;25713;-35.352;149.036;2023-03-14T05:31:42;1.90;;;0.80;;
40022;SDS011;25713;-35.352;149.036;2023-03-14T05:34:31;2.08;;;0.98;;
40022;SDS011;25713;-35.352;149.036;2023-03-14T05:37:33;2.40;;;1.00;;
40022;SDS011;25713;-35.352;149.036;2023-03-14T05:40:25;1.77;;;0.88;;
40022;SDS011;25713;-35.352;149.036;2023-03-14T05:43:18;0.88;;;0.60;;
40022;SDS011;25713;-35.352;149.036;2023-03-14T05:45:58;1.23;;;0.88;;
40022;SDS011;25713;-35.352;149.036;2023-03-14T05:51:27;1.35;;;0.60;;
40022;SDS011;25713;-35.352;149.036;2023-03-14T05:54:06;1.45;;;0.65;;
40022;SDS011;25713;-35.352;149.036;2023-03-14T05:56:56;1.58;;;0.60;;
40022;SDS011;25713;-35.352;149.036;2023-03-14T05:59:44;3.80;;;1.00;;
40022;SDS011;25713;-35.352;149.036;2023-03-14T06:02:32;2.30;;;0.90;;
40022;SDS011;25713;-35.352;149.036;2023-03-14T06:05:10;2.42;;;0.80;;
40022;SDS011;25713;-35.352;149.036;2023-03-14T06:07:40;1.13;;;0.70;;
40022;SDS011;25713;-35.352;149.036;2023-03-14T06:10:11;1.63;;;0.70;;
40022;SDS011;25713;-35.352;149.036;2023-03-14T06:12:43;2.45;;;0.80;;
40022;SDS011;25713;-35.352;149.036;2023-03-14T06:15:13;0.98;;;0.60;;
40022;SDS011;25713;-35.352;149.036;2023-03-14T06:17:44;0.90;;;0.60;;
40022;SDS011;25713;-35.352;149.036;2023-03-14T06:20:14;0.88;;;0.70;;
40022;SDS011;25713;-35.352;149.036;2023-03-14T06:22:44;2.45;;;0.80;;
40022;SDS011;25713;-35.352;149.036;2023-03-14T06:25:15;0.88;;;0.63;;
40022;SDS011;25713;-35.352;149.036;2023-03-14T06:27:49;1.00;;;0.80;;
40022;SDS011;25713;-35.352;149.036;2023-03-14T06:30:23;1.85;;;0.80;;
40022;SDS011;25713;-35.352;149.036;2023-03-14T06:32:54;2.28;;;0.90;;
40022;SDS011;25713;-35.352;149.036;2023-03-14T06:35:24;1.60;;;0.82;;
40022;SDS011;25713;-35.352;149.036;2023-03-14T06:37:54;1.33;;;0.70;;
40022;SDS011;25713;-35.352;149.036;2023-03-14T06:40:24;1.45;;;0.60;;
40022;SDS011;25713;-35.352;149.036;2023-03-14T06:43:00;2.13;;;0.80;;
40022;SDS011;25713;-35.352;149.036;2023-03-14T06:45:32;2.35;;;0.80;;
40022;SDS011;25713;-35.352;149.036;2023-03-14T06:48:04;0.77;;;0.50;;
40022;SDS011;25713;-35.352;149.036;2023-03-14T06:50:42;1.85;;;0.70;;
40022;SDS011;25713;-35.352;149.036;2023-03-14T06:53:12;1.95;;;0.68;;
40022;SDS011;25713;-35.352;149.036;2023-03-14T06:55:44;1.25;;;0.73;;
40022;SDS011;25713;-35.352;149.036;2023-03-14T06:58:18;1.40;;;0.70;;
40022;SDS011;25713;-35.352;149.036;2023-03-14T07:00:48;0.60;;;0.47;;
40022;SDS011;25713;-35.352;149.036;2023-03-14T07:03:23;2.25;;;0.70;;
40022;SDS011;25713;-35.352;149.036;2023-03-14T07:05:55;0.65;;;0.60;;
40022;SDS011;25713;-35.352;149.036;2023-03-14T07:08:25;1.73;;;0.57;;
40022;SDS011;25713;-35.352;149.036;2023-03-14T07:10:56;1.95;;;0.70;;
40022;SDS011;25713;-35.352;149.036;2023-03-14T07:13:28;1.40;;;0.40;;
40022;SDS011;25713;-35.352;149.036;2023-03-14T07:16:06;0.80;;;0.60;;
40022;SDS011;25713;-35.352;149.036;2023-03-14T07:18:37;1.60;;;0.60;;
40022;SDS011;25713;-35.352;149.036;2023-03-14T07:21:07;1.80;;;0.50;;
40022;SDS011;25713;-35.352;149.036;2023-03-14T07:23:38;0.40;;;0.30;;
40022;SDS011;25713;-35.352;149.036;2023-03-14T07:26:09;1.08;;;0.50;;
40022;SDS011;25713;-35.352;149.036;2023-03-14T07:28:46;0.50;;;0.45;;
40022;SDS011;25713;-35.352;149.036;2023-03-14T07:31:19;0.65;;;0.40;;
40022;SDS011;25713;-35.352;149.036;2023-03-14T07:33:49;0.88;;;0.50;;
40022;SDS011;25713;-35.352;149.036;2023-03-14T07:36:20;0.60;;;0.40;;
40022;SDS011;25713;-35.352;149.036;2023-03-14T07:38:50;0.50;;;0.50;;
40022;SDS011;25713;-35.352;149.036;2023-03-14T07:41:43;0.45;;;0.40;;
40022;SDS011;25713;-35.352;149.036;2023-03-14T07:44:45;0.40;;;0.40;;
40022;SDS011;25713;-35.352;149.036;2023-03-14T07:47:14;0.50;;;0.50;;
40022;SDS011;25713;-35.352;149.036;2023-03-14T07:49:44;0.85;;;0.40;;
40022;SDS011;25713;-35.352;149.036;2023-03-14T07:52:14;0.80;;;0.40;;
40022;SDS011;25713;-35.352;149.036;2023-03-14T07:54:45;0.50;;;0.35;;
40022;SDS011;25713;-35.352;149.036;2023-03-14T07:57:15;0.40;;;0.38;;
40022;SDS011;25713;-35.352;149.036;2023-03-14T07:59:47;0.50;;;0.40;;
40022;SDS011;25713;-35.352;149.036;2023-03-14T08:02:18;1.65;;;0.40;;
40022;SDS011;25713;-35.352;149.036;2023-03-14T08:04:47;0.52;;;0.35;;
40022;SDS011;25713;-35.352;149.036;2023-03-14T08:07:18;0.38;;;0.38;;
40022;SDS011;25713;-35.352;149.036;2023-03-14T08:09:48;0.73;;;0.40;;
40022;SDS011;25713;-35.352;149.036;2023-03-14T08:12:18;0.75;;;0.50;;
40022;SDS011;25713;-35.352;149.036;2023-03-14T08:14:50;0.98;;;0.40;;
40022;SDS011;25713;-35.352;149.036;2023-03-14T08:17:19;0.68;;;0.30;;
40022;SDS011;25713;-35.352;149.036;2023-03-14T08:19:50;0.30;;;0.30;;
40022;SDS011;25713;-35.352;149.036;2023-03-14T08:22:20;0.30;;;0.30;;
40022;SDS011;25713;-35.352;149.036;2023-03-14T08:24:51;0.40;;;0.40;;
40022;SDS011;25713;-35.352;149.036;2023-03-14T08:27:21;0.82;;;0.38;;
40022;SDS011;25713;-35.352;149.036;2023-03-14T08:29:53;0.30;;;0.30;;
40022;SDS011;25713;-35.352;149.036;2023-03-14T08:32:23;0.60;;;0.40;;
40022;SDS011;25713;-35.352;149.036;2023-03-14T08:34:53;0.52;;;0.30;;
40022;SDS011;25713;-35.352;149.036;2023-03-14T08:37:23;0.38;;;0.35;;
40022;SDS011;25713;-35.352;149.036;2023-03-14T08:39:53;0.28;;;0.28;;
40022;SDS011;25713;-35.352;149.036;2023-03-14T08:42:23;0.30;;;0.30;;
40022;SDS011;25713;-35.352;149.036;2023-03-14T08:44:55;1.58;;;0.82;;
40022;SDS011;25713;-35.352;149.036;2023-03-14T08:49:54;1.02;;;0.40;;
40022;SDS011;25713;-35.352;149.036;2023-03-14T08:52:24;0.40;;;0.40;;
40022;SDS011;25713;-35.352;149.036;2023-03-14T08:54:55;0.68;;;0.43;;
40022;SDS011;25713;-35.352;149.036;2023-03-14T08:57:25;0.47;;;0.30;;
40022;SDS011;25713;-35.352;149.036;2023-03-14T08:59:57;0.65;;;0.30;;
40022;SDS011;25713;-35.352;149.036;2023-03-14T09:02:27;0.82;;;0.50;;
40022;SDS011;25713;-35.352;149.036;2023-03-14T09:05:00;1.38;;;0.30;;
40022;SDS011;25713;-35.352;149.036;2023-03-14T09:07:30;0.30;;;0.30;;
40022;SDS011;25713;-35.352;149.036;2023-03-14T09:10:00;0.30;;;0.30;;
40022;SDS011;25713;-35.352;149.036;2023-03-14T09:12:30;1.42;;;0.40;;
40022;SDS011;25713;-35.352;149.036;2023-03-14T09:15:03;0.55;;;0.55;;
40022;SDS011;25713;-35.352;149.036;2023-03-14T09:17:33;0.52;;;0.30;;
40022;SDS011;25713;-35.352;149.036;2023-03-14T09:20:04;0.73;;;0.50;;
40022;SDS011;25713;-35.352;149.036;2023-03-14T09:22:35;0.50;;;0.30;;
40022;SDS011;25713;-35.352;149.036;2023-03-14T09:25:06;0.30;;;0.30;;
40022;SDS011;25713;-35.352;149.036;2023-03-14T09:27:37;0.30;;;0.30;;
40022;SDS011;25713;-35.352;149.036;2023-03-14T09:30:10;1.42;;;0.30;;
40022;SDS011;25713;-35.352;149.036;2023-03-14T09:32:40;0.50;;;0.30;;
40022;SDS011;25713;-35.352;149.036;2023-03-14T09:35:10;0.20;;;0.20;;
40022;SDS011;25713;-35.352;149.036;2023-03-14T09:37:40;0.40;;;0.40;;
40022;SDS011;25713;-35.352;149.036;2023-03-14T09:40:11;0.52;;;0.30;;
40022;SDS011;25713;-35.352;149.036;2023-03-14T09:42:43;0.63;;;0.40;;
40022;SDS011;25713;-35.352;149.036;2023-03-14T09:45:17;0.30;;;0.30;;
40022;SDS011;25713;-35.352;149.036;2023-03-14T09:47:52;0.30;;;0.30;;
40022;SDS011;25713;-35.352;149.036;2023-03-14T09:52:53;0.85;;;0.45;;
40022;SDS011;25713;-35.352;149.036;2023-03-14T09:55:30;0.28;;;0.28;;
40022;SDS011;25713;-35.352;149.036;2023-03-14T09:58:02;1.13;;;0.38;;
40022;SDS011;25713;-35.352;149.036;2023-03-14T10:00:41;0.63;;;0.30;;
40022;SDS011;25713;-35.352;149.036;2023-03-14T10:03:21;0.63;;;0.40;;
40022;SDS011;25713;-35.352;149.036;2023-03-14T10:05:53;0.40;;;0.38;;
40022;SDS011;25713;-35.352;149.036;2023-03-14T10:08:25;0.40;;;0.30;;
40022;SDS011;25713;-35.352;149.036;2023-03-14T10:10:55;0.35;;;0.30;;
40022;SDS011;25713;-35.352;149.036;2023-03-14T10:13:26;0.40;;;0.40;;
40022;SDS011;25713;-35.352;149.036;2023-03-14T10:16:00;0.52;;;0.40;;
40022;SDS011;25713;-35.352;149.036;2023-03-14T10:18:32;0.30;;;0.30;;
40022;SDS011;25713;-35.352;149.036;2023-03-14T10:21:04;0.85;;;0.47;;
40022;SDS011;25713;-35.352;149.036;2023-03-14T10:23:47;1.48;;;0.43;;
40022;SDS011;25713;-35.352;149.036;2023-03-14T10:26:36;0.77;;;0.40;;
40022;SDS011;25713;-35.352;149.036;2023-03-14T10:29:08;1.40;;;0.40;;
40022;SDS011;25713;-35.352;149.036;2023-03-14T10:31:50;0.40;;;0.40;;
40022;SDS011;25713;-35.352;149.036;2023-03-14T10:34:23;0.30;;;0.30;;
40022;SDS011;25713;-35.352;149.036;2023-03-14T10:36:56;0.50;;;0.32;;
40022;SDS011;25713;-35.352;149.036;2023-03-14T10:39:41;0.60;;;0.40;;
40022;SDS011;25713;-35.352;149.036;2023-03-14T10:42:15;0.65;;;0.50;;
40022;SDS011;25713;-35.352;149.036;2023-03-14T10:44:49;0.30;;;0.30;;
40022;SDS011;25713;-35.352;149.036;2023-03-14T10:47:26;0.30;;;0.30;;
40022;SDS011;25713;-35.352;149.036;2023-03-14T10:49:56;0.60;;;0.40;;
40022;SDS011;25713;-35.352;149.036;2023-03-14T10:52:47;0.40;;;0.30;;
40022;SDS011;25713;-35.352;149.036;2023-03-14T10:55:17;0.65;;;0.50;;
40022;SDS011;25713;-35.352;149.036;2023-03-14T10:57:47;0.70;;;0.60;;
40022;SDS011;25713;-35.352;149.036;2023-03-14T11:00:18;0.60;;;0.40;;
40022;SDS011;25713;-35.352;149.036;2023-03-14T11:02:58;0.30;;;0.30;;
40022;SDS011;25713;-35.352;149.036;2023-03-14T11:05:33;0.40;;;0.40;;
40022;SDS011;25713;-35.352;149.036;2023-03-14T11:08:07;0.50;;;0.40;;
40022;SDS011;25713;-35.352;149.036;2023-03-14T11:10:43;0.40;;;0.40;;
40022;SDS011;25713;-35.352;149.036;2023-03-14T11:13:17;4.03;;;0.50;;
40022;SDS011;25713;-35.352;149.036;2023-03-14T11:15:59;0.60;;;0.40;;
40022;SDS011;25713;-35.352;149.036;2023-03-14T11:18:48;0.50;;;0.40;;
40022;SDS011;25713;-35.352;149.036;2023-03-14T11:21:42;1.95;;;0.50;;
40022;SDS011;25713;-35.352;149.036;2023-03-14T11:24:24;0.73;;;0.40;;
40022;SDS011;25713;-35.352;149.036;2023-03-14T11:27:07;0.43;;;0.43;;
40022;SDS011;25713;-35.352;149.036;2023-03-14T11:29:46;0.60;;;0.40;;
40022;SDS011;25713;-35.352;149.036;2023-03-14T11:32:32;0.80;;;0.40;;
40022;SDS011;25713;-35.352;149.036;2023-03-14T11:35:15;1.48;;;0.43;;
40022;SDS011;25713;-35.352;149.036;2023-03-14T11:37:52;1.13;;;0.50;;
40022;SDS011;25713;-35.352;149.036;2023-03-14T11:40:26;0.47;;;0.47;;
40022;SDS011;25713;-35.352;149.036;2023-03-14T11:43:04;1.27;;;0.60;;
40022;SDS011;25713;-35.352;149.036;2023-03-14T11:45:41;0.65;;;0.45;;
40022;SDS011;25713;-35.352;149.036;2023-03-14T11:51:07;1.02;;;0.60;;
40022;SDS011;25713;-35.352;149.036;2023-03-14T11:53:44;0.43;;;0.43;;
40022;SDS011;25713;-35.352;149.036;2023-03-14T11:56:24;2.60;;;0.50;;
40022;SDS011;25713;-35.352;149.036;2023-03-14T11:59:00;0.80;;;0.60;;
40022;SDS011;25713;-35.352;149.036;2023-03-14T12:01:35;0.45;;;0.45;;
40022;SDS011;25713;-35.352;149.036;2023-03-14T12:04:21;0.60;;;0.60;;
40022;SDS011;25713;-35.352;149.036;2023-03-14T12:07:13;1.00;;;0.50;;
40022;SDS011;25713;-35.352;149.036;2023-03-14T12:09:47;0.70;;;0.50;;
40022;SDS011;25713;-35.352;149.036;2023-03-14T12:14:52;1.48;;;0.50;;
40022;SDS011;25713;-35.352;149.036;2023-03-14T12:17:25;0.65;;;0.60;;
40022;SDS011;25713;-35.352;149.036;2023-03-14T12:20:02;1.25;;;0.52;;
40022;SDS011;25713;-35.352;149.036;2023-03-14T12:22:44;0.70;;;0.50;;
40022;SDS011;25713;-35.352;149.036;2023-03-14T12:25:16;1.20;;;0.80;;
40022;SDS011;25713;-35.352;149.036;2023-03-14T12:30:47;0.82;;;0.68;;
40022;SDS011;25713;-35.352;149.036;2023-03-14T12:33:21;1.67;;;0.75;;
40022;SDS011;25713;-35.352;149.036;2023-03-14T12:35:58;0.68;;;0.68;;
40022;SDS011;25713;-35.352;149.036;2023-03-14T12:38:41;1.23;;;0.60;;
40022;SDS011;25713;-35.352;149.036;2023-03-14T12:41:28;1.00;;;0.70;;
40022;SDS011;25713;-35.352;149.036;2023-03-14T12:50:21;1.42;;;0.65;;
40022;SDS011;25713;-35.352;149.036;2023-03-14T12:53:00;0.73;;;0.63;;
40022;SDS011;25713;-35.352;149.036;2023-03-14T12:56:02;0.88;;;0.60;;
40022;SDS011;25713;-35.352;149.036;2023-03-14T12:58:38;0.70;;;0.70;;
40022;SDS011;25713;-35.352;149.036;2023-03-14T13:01:15;1.50;;;0.60;;
40022;SDS011;25713;-35.352;149.036;2023-03-14T13:03:47;1.10;;;0.70;;
40022;SDS011;25713;-35.352;149.036;2023-03-14T13:12:22;1.13;;;0.68;;
40022;SDS011;25713;-35.352;149.036;2023-03-14T13:14:57;1.80;;;0.80;;
40022;SDS011;25713;-35.352;149.036;2023-03-14T13:20:00;1.52;;;0.70;;
40022;SDS011;25713;-35.352;149.036;2023-03-14T13:22:38;1.40;;;0.70;;
40022;SDS011;25713;-35.352;149.036;2023-03-14T13:25:13;0.60;;;0.60;;
40022;SDS011;25713;-35.352;149.036;2023-03-14T13:27:47;0.68;;;0.65;;
40022;SDS011;25713;-35.352;149.036;2023-03-14T13:30:22;0.75;;;0.70;;
40022;SDS011;25713;-35.352;149.036;2023-03-14T13:32:53;1.15;;;0.60;;
40022;SDS011;25713;-35.352;149.036;2023-03-14T13:35:24;0.85;;;0.70;;
40022;SDS011;25713;-35.352;149.036;2023-03-14T13:40:25;0.68;;;0.45;;
40022;SDS011;25713;-35.352;149.036;2023-03-14T13:43:11;0.60;;;0.60;;
40022;SDS011;25713;-35.352;149.036;2023-03-14T13:45:47;0.90;;;0.65;;
40022;SDS011;25713;-35.352;149.036;2023-03-14T13:48:19;0.88;;;0.63;;
40022;SDS011;25713;-35.352;149.036;2023-03-14T13:50:53;1.23;;;0.70;;
40022;SDS011;25713;-35.352;149.036;2023-03-14T13:53:26;0.65;;;0.52;;
40022;SDS011;25713;-35.352;149.036;2023-03-14T13:55:57;0.90;;;0.63;;
40022;SDS011;25713;-35.352;149.036;2023-03-14T13:58:35;1.08;;;0.73;;
40022;SDS011;25713;-35.352;149.036;2023-03-14T14:01:11;1.20;;;0.80;;
40022;SDS011;25713;-35.352;149.036;2023-03-14T14:03:45;2.33;;;0.73;;
40022;SDS011;25713;-35.352;149.036;2023-03-14T14:09:10;0.82;;;0.60;;
40022;SDS011;25713;-35.352;149.036;2023-03-14T14:11:42;1.08;;;0.98;;
40022;SDS011;25713;-35.352;149.036;2023-03-14T14:14:19;2.30;;;0.68;;
40022;SDS011;25713;-35.352;149.036;2023-03-14T14:16:53;0.88;;;0.80;;
40022;SDS011;25713;-35.352;149.036;2023-03-14T14:19:24;0.95;;;0.57;;
40022;SDS011;25713;-35.352;149.036;2023-03-14T14:21:57;1.10;;;0.70;;
40022;SDS011;25713;-35.352;149.036;2023-03-14T14:24:28;1.48;;;0.90;;
40022;SDS011;25713;-35.352;149.036;2023-03-14T14:27:01;1.13;;;0.75;;
40022;SDS011;25713;-35.352;149.036;2023-03-14T14:29:40;1.45;;;0.80;;
40022;SDS011;25713;-35.352;149.036;2023-03-14T14:32:11;2.35;;;0.82;;
40022;SDS011;25713;-35.352;149.036;2023-03-14T14:37:18;0.60;;;0.60;;
40022;SDS011;25713;-35.352;149.036;2023-03-14T14:39:49;0.80;;;0.70;;
40022;SDS011;25713;-35.352;149.036;2023-03-14T14:42:20;1.07;;;0.77;;
40022;SDS011;25713;-35.352;149.036;2023-03-14T14:44:57;1.10;;;0.73;;
40022;SDS011;25713;-35.352;149.036;2023-03-14T14:47:29;1.10;;;0.73;;
40022;SDS011;25713;-35.352;149.036;2023-03-14T15:52:01;2.35;;;1.10;;
40022;SDS011;25713;-35.352;149.036;2023-03-14T15:54:31;1.90;;;0.80;;
40022;SDS011;25713;-35.352;149.036;2023-03-14T15:57:01;1.02;;;0.90;;
40022;SDS011;25713;-35.352;149.036;2023-03-14T15:59:31;1.10;;;0.80;;
40022;SDS011;25713;-35.352;149.036;2023-03-14T16:02:01;1.10;;;0.82;;
40022;SDS011;25713;-35.352;149.036;2023-03-14T16:04:31;1.88;;;0.85;;
40022;SDS011;25713;-35.352;149.036;2023-03-14T16:07:03;2.25;;;1.17;;
40022;SDS011;25713;-35.352;149.036;2023-03-14T16:09:34;1.40;;;0.80;;
40022;SDS011;25713;-35.352;149.036;2023-03-14T16:12:05;1.67;;;0.90;;
40022;SDS011;25713;-35.352;149.036;2023-03-14T16:14:35;2.35;;;1.08;;
40022;SDS011;25713;-35.352;149.036;2023-03-14T16:17:05;1.88;;;0.88;;
40022;SDS011;25713;-35.352;149.036;2023-03-14T16:19:36;1.65;;;0.90;;
40022;SDS011;25713;-35.352;149.036;2023-03-14T16:22:10;1.50;;;0.88;;
40022;SDS011;25713;-35.352;149.036;2023-03-14T16:24:40;1.83;;;0.90;;
40022;SDS011;25713;-35.352;149.036;2023-03-14T16:27:10;1.73;;;0.88;;
40022;SDS011;25713;-35.352;149.036;2023-03-14T16:29:40;1.05;;;0.90;;
40022;SDS011;25713;-35.352;149.036;2023-03-14T16:32:10;1.20;;;0.90;;
40022;SDS011;25713;-35.352;149.036;2023-03-14T16:34:40;1.67;;;0.90;;
40022;SDS011;25713;-35.352;149.036;2023-03-14T16:37:14;1.02;;;0.70;;